Terminal Aerodrome Forecast
Issued by NWS San Angelo, TX

Current Version | Previous Version | Text Only | Print | Product List | Glossary Off
Versions: 1 2 3 4 5 6 7 8 9 10 11 12 13 14

000
FTUS44 KSJT 022300
TAFABI
TAF
KABI 022328Z 0300/0324 16015G21KT P6SM SKC
     FM030300 18011KT P6SM SKC
     FM031500 18014G20KT P6SM FEW070=

USA.gov is the U.S. government's official web portal to all federal, state and local government web resources and services.